sensor_id;sensor_type;location;lat;lon;timestamp;P1;durP1;ratioP1;P2;durP2;ratioP2
12267;SDS011;6196;48.398;11.736;2023-05-10T00:02:03;2.43;;;1.47;;
12267;SDS011;6196;48.398;11.736;2023-05-10T00:04:30;1.70;;;1.60;;
12267;SDS011;6196;48.398;11.736;2023-05-10T00:06:57;3.87;;;1.60;;
12267;SDS011;6196;48.398;11.736;2023-05-10T00:09:24;2.13;;;1.70;;
12267;SDS011;6196;48.398;11.736;2023-05-10T00:11:51;2.40;;;1.60;;
12267;SDS011;6196;48.398;11.736;2023-05-10T00:14:18;4.93;;;1.90;;
12267;SDS011;6196;48.398;11.736;2023-05-10T00:16:45;2.10;;;1.90;;
12267;SDS011;6196;48.398;11.736;2023-05-10T00:19:12;3.57;;;1.80;;
12267;SDS011;6196;48.398;11.736;2023-05-10T00:21:39;1.97;;;1.77;;
12267;SDS011;6196;48.398;11.736;2023-05-10T00:24:06;1.80;;;1.60;;
12267;SDS011;6196;48.398;11.736;2023-05-10T00:26:33;3.00;;;1.77;;
12267;SDS011;6196;48.398;11.736;2023-05-10T00:29:00;1.50;;;1.40;;
12267;SDS011;6196;48.398;11.736;2023-05-10T00:31:26;3.27;;;1.43;;
12267;SDS011;6196;48.398;11.736;2023-05-10T00:33:54;2.03;;;1.27;;
12267;SDS011;6196;48.398;11.736;2023-05-10T00:36:21;4.23;;;1.70;;
12267;SDS011;6196;48.398;11.736;2023-05-10T00:38:48;3.90;;;1.60;;
12267;SDS011;6196;48.398;11.736;2023-05-10T00:41:15;1.67;;;1.57;;
12267;SDS011;6196;48.398;11.736;2023-05-10T00:43:42;2.33;;;1.93;;
12267;SDS011;6196;48.398;11.736;2023-05-10T00:46:09;4.97;;;1.90;;
12267;SDS011;6196;48.398;11.736;2023-05-10T00:48:37;1.43;;;1.33;;
12267;SDS011;6196;48.398;11.736;2023-05-10T00:51:04;1.97;;;1.60;;
12267;SDS011;6196;48.398;11.736;2023-05-10T00:53:31;2.23;;;1.73;;
12267;SDS011;6196;48.398;11.736;2023-05-10T00:55:59;1.83;;;1.73;;
12267;SDS011;6196;48.398;11.736;2023-05-10T00:58:26;2.60;;;1.70;;
12267;SDS011;6196;48.398;11.736;2023-05-10T01:00:54;2.70;;;1.90;;
12267;SDS011;6196;48.398;11.736;2023-05-10T01:03:24;1.97;;;1.77;;
12267;SDS011;6196;48.398;11.736;2023-05-10T01:05:52;2.00;;;1.80;;
12267;SDS011;6196;48.398;11.736;2023-05-10T01:08:19;3.27;;;1.90;;
12267;SDS011;6196;48.398;11.736;2023-05-10T01:10:46;2.10;;;1.93;;
12267;SDS011;6196;48.398;11.736;2023-05-10T01:13:18;2.40;;;2.20;;
12267;SDS011;6196;48.398;11.736;2023-05-10T01:16:10;2.40;;;2.20;;
12267;SDS011;6196;48.398;11.736;2023-05-10T01:18:39;3.83;;;2.00;;
12267;SDS011;6196;48.398;11.736;2023-05-10T01:23:43;2.40;;;2.20;;
12267;SDS011;6196;48.398;11.736;2023-05-10T01:26:38;2.70;;;2.30;;
12267;SDS011;6196;48.398;11.736;2023-05-10T01:32:55;2.60;;;2.10;;
12267;SDS011;6196;48.398;11.736;2023-05-10T01:35:31;4.20;;;2.17;;
12267;SDS011;6196;48.398;11.736;2023-05-10T01:38:16;2.77;;;2.00;;
12267;SDS011;6196;48.398;11.736;2023-05-10T01:47:07;2.47;;;1.80;;
12267;SDS011;6196;48.398;11.736;2023-05-10T01:49:59;2.00;;;1.90;;
12267;SDS011;6196;48.398;11.736;2023-05-10T01:52:36;1.80;;;1.70;;
12267;SDS011;6196;48.398;11.736;2023-05-10T01:55:11;1.83;;;1.40;;
12267;SDS011;6196;48.398;11.736;2023-05-10T01:57:43;1.47;;;1.37;;
12267;SDS011;6196;48.398;11.736;2023-05-10T02:00:13;1.77;;;1.67;;
12267;SDS011;6196;48.398;11.736;2023-05-10T02:02:45;1.90;;;1.67;;
12267;SDS011;6196;48.398;11.736;2023-05-10T02:05:16;1.77;;;1.50;;
12267;SDS011;6196;48.398;11.736;2023-05-10T02:07:43;1.80;;;1.30;;
12267;SDS011;6196;48.398;11.736;2023-05-10T02:10:11;1.63;;;1.30;;
12267;SDS011;6196;48.398;11.736;2023-05-10T02:12:43;2.20;;;1.53;;
12267;SDS011;6196;48.398;11.736;2023-05-10T02:15:15;1.43;;;1.30;;
12267;SDS011;6196;48.398;11.736;2023-05-10T02:17:48;1.60;;;1.20;;
12267;SDS011;6196;48.398;11.736;2023-05-10T02:20:16;1.40;;;1.30;;
12267;SDS011;6196;48.398;11.736;2023-05-10T02:22:45;1.67;;;1.43;;
12267;SDS011;6196;48.398;11.736;2023-05-10T02:25:15;1.83;;;1.30;;
12267;SDS011;6196;48.398;11.736;2023-05-10T02:27:46;2.73;;;1.40;;
12267;SDS011;6196;48.398;11.736;2023-05-10T02:30:14;1.57;;;1.20;;
12267;SDS011;6196;48.398;11.736;2023-05-10T02:32:43;1.47;;;1.30;;
12267;SDS011;6196;48.398;11.736;2023-05-10T02:35:11;1.40;;;1.30;;
12267;SDS011;6196;48.398;11.736;2023-05-10T02:37:39;1.10;;;0.97;;
12267;SDS011;6196;48.398;11.736;2023-05-10T02:40:06;1.03;;;1.00;;
12267;SDS011;6196;48.398;11.736;2023-05-10T02:42:35;1.63;;;1.20;;
12267;SDS011;6196;48.398;11.736;2023-05-10T02:45:05;0.93;;;0.93;;
12267;SDS011;6196;48.398;11.736;2023-05-10T02:47:38;2.13;;;0.80;;
12267;SDS011;6196;48.398;11.736;2023-05-10T02:50:05;1.57;;;1.00;;
12267;SDS011;6196;48.398;11.736;2023-05-10T02:52:44;1.67;;;1.10;;
12267;SDS011;6196;48.398;11.736;2023-05-10T02:55:14;1.13;;;0.87;;
12267;SDS011;6196;48.398;11.736;2023-05-10T02:57:44;2.97;;;1.10;;
12267;SDS011;6196;48.398;11.736;2023-05-10T03:00:17;1.07;;;0.97;;
12267;SDS011;6196;48.398;11.736;2023-05-10T03:02:44;1.33;;;1.00;;
12267;SDS011;6196;48.398;11.736;2023-05-10T03:05:11;1.10;;;1.00;;
12267;SDS011;6196;48.398;11.736;2023-05-10T03:07:38;1.17;;;0.90;;
12267;SDS011;6196;48.398;11.736;2023-05-10T03:10:05;1.10;;;0.77;;
12267;SDS011;6196;48.398;11.736;2023-05-10T03:18:53;0.63;;;0.63;;
12267;SDS011;6196;48.398;11.736;2023-05-10T03:21:28;1.00;;;0.90;;
12267;SDS011;6196;48.398;11.736;2023-05-10T03:23:58;2.13;;;1.10;;
12267;SDS011;6196;48.398;11.736;2023-05-10T03:26:32;1.97;;;1.20;;
12267;SDS011;6196;48.398;11.736;2023-05-10T03:28:59;1.43;;;0.70;;
12267;SDS011;6196;48.398;11.736;2023-05-10T03:31:27;4.30;;;0.87;;
12267;SDS011;6196;48.398;11.736;2023-05-10T03:33:54;1.90;;;0.90;;
12267;SDS011;6196;48.398;11.736;2023-05-10T03:36:21;0.87;;;0.87;;
12267;SDS011;6196;48.398;11.736;2023-05-10T03:38:47;1.07;;;0.80;;
12267;SDS011;6196;48.398;11.736;2023-05-10T03:41:14;0.87;;;0.87;;
12267;SDS011;6196;48.398;11.736;2023-05-10T03:43:41;1.10;;;1.00;;
12267;SDS011;6196;48.398;11.736;2023-05-10T03:46:08;1.00;;;0.80;;
12267;SDS011;6196;48.398;11.736;2023-05-10T03:48:35;1.17;;;0.90;;
12267;SDS011;6196;48.398;11.736;2023-05-10T03:51:02;1.67;;;1.00;;
12267;SDS011;6196;48.398;11.736;2023-05-10T03:53:29;1.03;;;0.73;;
12267;SDS011;6196;48.398;11.736;2023-05-10T03:55:56;0.97;;;0.70;;
12267;SDS011;6196;48.398;11.736;2023-05-10T03:58:23;1.00;;;0.90;;
12267;SDS011;6196;48.398;11.736;2023-05-10T04:00:50;1.77;;;1.03;;
12267;SDS011;6196;48.398;11.736;2023-05-10T04:03:18;2.63;;;1.10;;
12267;SDS011;6196;48.398;11.736;2023-05-10T04:05:45;1.20;;;1.10;;
12267;SDS011;6196;48.398;11.736;2023-05-10T04:08:11;1.33;;;0.90;;
12267;SDS011;6196;48.398;11.736;2023-05-10T04:10:38;1.23;;;1.13;;
12267;SDS011;6196;48.398;11.736;2023-05-10T04:13:05;5.33;;;1.20;;
12267;SDS011;6196;48.398;11.736;2023-05-10T04:15:32;2.03;;;1.23;;
12267;SDS011;6196;48.398;11.736;2023-05-10T04:17:59;1.20;;;1.10;;
12267;SDS011;6196;48.398;11.736;2023-05-10T04:20:27;1.23;;;1.10;;
12267;SDS011;6196;48.398;11.736;2023-05-10T04:22:54;1.20;;;1.10;;
12267;SDS011;6196;48.398;11.736;2023-05-10T04:25:21;1.83;;;1.00;;
12267;SDS011;6196;48.398;11.736;2023-05-10T04:27:47;1.37;;;1.27;;
12267;SDS011;6196;48.398;11.736;2023-05-10T04:30:14;0.97;;;0.97;;
12267;SDS011;6196;48.398;11.736;2023-05-10T04:32:41;0.90;;;0.90;;
12267;SDS011;6196;48.398;11.736;2023-05-10T04:35:08;1.33;;;1.23;;
12267;SDS011;6196;48.398;11.736;2023-05-10T04:37:36;2.27;;;1.10;;
12267;SDS011;6196;48.398;11.736;2023-05-10T04:40:03;1.23;;;1.13;;
12267;SDS011;6196;48.398;11.736;2023-05-10T04:42:32;1.93;;;1.20;;
12267;SDS011;6196;48.398;11.736;2023-05-10T04:44:59;1.03;;;0.93;;
12267;SDS011;6196;48.398;11.736;2023-05-10T04:47:26;1.00;;;0.90;;
12267;SDS011;6196;48.398;11.736;2023-05-10T04:49:52;1.30;;;1.20;;
12267;SDS011;6196;48.398;11.736;2023-05-10T04:52:19;3.17;;;1.00;;
12267;SDS011;6196;48.398;11.736;2023-05-10T04:54:46;0.90;;;0.80;;
12267;SDS011;6196;48.398;11.736;2023-05-10T04:57:13;0.77;;;0.77;;
12267;SDS011;6196;48.398;11.736;2023-05-10T04:59:40;2.13;;;0.77;;
12267;SDS011;6196;48.398;11.736;2023-05-10T05:02:08;0.77;;;0.77;;
12267;SDS011;6196;48.398;11.736;2023-05-10T05:04:35;1.10;;;1.00;;
12267;SDS011;6196;48.398;11.736;2023-05-10T05:07:02;0.90;;;0.90;;
12267;SDS011;6196;48.398;11.736;2023-05-10T05:09:29;1.33;;;0.90;;
12267;SDS011;6196;48.398;11.736;2023-05-10T05:11:58;1.37;;;0.63;;
12267;SDS011;6196;48.398;11.736;2023-05-10T05:14:25;0.60;;;0.60;;
12267;SDS011;6196;48.398;11.736;2023-05-10T05:16:52;1.13;;;0.77;;
12267;SDS011;6196;48.398;11.736;2023-05-10T05:19:19;1.07;;;0.50;;
12267;SDS011;6196;48.398;11.736;2023-05-10T05:21:46;1.70;;;0.50;;
12267;SDS011;6196;48.398;11.736;2023-05-10T05:24:13;0.73;;;0.40;;
12267;SDS011;6196;48.398;11.736;2023-05-10T05:26:40;0.30;;;0.30;;
12267;SDS011;6196;48.398;11.736;2023-05-10T05:29:07;2.57;;;0.40;;
12267;SDS011;6196;48.398;11.736;2023-05-10T05:31:34;0.40;;;0.40;;
12267;SDS011;6196;48.398;11.736;2023-05-10T05:34:01;1.03;;;0.40;;
12267;SDS011;6196;48.398;11.736;2023-05-10T05:36:28;0.30;;;0.30;;
12267;SDS011;6196;48.398;11.736;2023-05-10T05:38:55;0.30;;;0.30;;
12267;SDS011;6196;48.398;11.736;2023-05-10T05:41:21;0.93;;;0.53;;
12267;SDS011;6196;48.398;11.736;2023-05-10T05:43:50;1.27;;;0.53;;
12267;SDS011;6196;48.398;11.736;2023-05-10T05:46:16;0.60;;;0.50;;
12267;SDS011;6196;48.398;11.736;2023-05-10T05:48:43;0.90;;;0.73;;
12267;SDS011;6196;48.398;11.736;2023-05-10T05:51:10;1.03;;;0.80;;
12267;SDS011;6196;48.398;11.736;2023-05-10T05:53:37;0.47;;;0.47;;
12267;SDS011;6196;48.398;11.736;2023-05-10T05:56:04;3.90;;;0.47;;
12267;SDS011;6196;48.398;11.736;2023-05-10T05:58:31;2.10;;;0.50;;
12267;SDS011;6196;48.398;11.736;2023-05-10T06:00:58;0.60;;;0.40;;
12267;SDS011;6196;48.398;11.736;2023-05-10T06:03:25;0.63;;;0.53;;
12267;SDS011;6196;48.398;11.736;2023-05-10T06:05:52;0.90;;;0.47;;
12267;SDS011;6196;48.398;11.736;2023-05-10T06:08:19;0.90;;;0.40;;
12267;SDS011;6196;48.398;11.736;2023-05-10T06:10:46;1.50;;;0.43;;
12267;SDS011;6196;48.398;11.736;2023-05-10T06:13:14;0.97;;;0.50;;
12267;SDS011;6196;48.398;11.736;2023-05-10T06:15:41;0.60;;;0.50;;
12267;SDS011;6196;48.398;11.736;2023-05-10T06:18:08;2.80;;;0.70;;
12267;SDS011;6196;48.398;11.736;2023-05-10T06:20:35;2.40;;;0.70;;
12267;SDS011;6196;48.398;11.736;2023-05-10T06:23:02;0.73;;;0.70;;
12267;SDS011;6196;48.398;11.736;2023-05-10T06:25:29;1.93;;;0.70;;
12267;SDS011;6196;48.398;11.736;2023-05-10T06:27:56;1.47;;;0.63;;
12267;SDS011;6196;48.398;11.736;2023-05-10T06:30:24;2.77;;;0.90;;
12267;SDS011;6196;48.398;11.736;2023-05-10T06:32:55;1.63;;;0.70;;
12267;SDS011;6196;48.398;11.736;2023-05-10T06:35:22;1.07;;;0.90;;
12267;SDS011;6196;48.398;11.736;2023-05-10T06:37:49;1.00;;;0.90;;
12267;SDS011;6196;48.398;11.736;2023-05-10T06:40:17;0.97;;;0.97;;
12267;SDS011;6196;48.398;11.736;2023-05-10T06:42:44;1.90;;;1.10;;
12267;SDS011;6196;48.398;11.736;2023-05-10T06:45:12;1.97;;;1.17;;
12267;SDS011;6196;48.398;11.736;2023-05-10T06:47:41;1.77;;;1.47;;
12267;SDS011;6196;48.398;11.736;2023-05-10T06:50:08;1.13;;;1.03;;
12267;SDS011;6196;48.398;11.736;2023-05-10T06:52:37;1.20;;;1.10;;
12267;SDS011;6196;48.398;11.736;2023-05-10T06:55:05;1.20;;;0.90;;
12267;SDS011;6196;48.398;11.736;2023-05-10T06:57:32;1.10;;;1.00;;
12267;SDS011;6196;48.398;11.736;2023-05-10T06:59:59;1.90;;;0.90;;
12267;SDS011;6196;48.398;11.736;2023-05-10T07:02:27;1.03;;;0.93;;
12267;SDS011;6196;48.398;11.736;2023-05-10T07:04:54;1.30;;;0.97;;
12267;SDS011;6196;48.398;11.736;2023-05-10T07:07:21;1.13;;;0.90;;
12267;SDS011;6196;48.398;11.736;2023-05-10T07:09:48;1.00;;;0.73;;
12267;SDS011;6196;48.398;11.736;2023-05-10T07:12:16;1.73;;;1.20;;
12267;SDS011;6196;48.398;11.736;2023-05-10T07:14:43;1.40;;;1.10;;
12267;SDS011;6196;48.398;11.736;2023-05-10T07:17:10;3.20;;;1.10;;
12267;SDS011;6196;48.398;11.736;2023-05-10T07:19:37;1.37;;;1.00;;
12267;SDS011;6196;48.398;11.736;2023-05-10T07:22:03;2.30;;;1.20;;
12267;SDS011;6196;48.398;11.736;2023-05-10T07:24:31;1.40;;;1.10;;
12267;SDS011;6196;48.398;11.736;2023-05-10T07:26:59;2.07;;;1.20;;
12267;SDS011;6196;48.398;11.736;2023-05-10T07:29:26;2.70;;;1.40;;
12267;SDS011;6196;48.398;11.736;2023-05-10T07:31:52;1.30;;;1.10;;
12267;SDS011;6196;48.398;11.736;2023-05-10T07:34:23;1.53;;;1.43;;
12267;SDS011;6196;48.398;11.736;2023-05-10T07:36:51;1.50;;;1.40;;
12267;SDS011;6196;48.398;11.736;2023-05-10T07:39:18;3.83;;;1.60;;
12267;SDS011;6196;48.398;11.736;2023-05-10T07:41:53;2.40;;;1.30;;
12267;SDS011;6196;48.398;11.736;2023-05-10T07:44:21;2.43;;;1.50;;
12267;SDS011;6196;48.398;11.736;2023-05-10T07:46:48;3.27;;;1.70;;
12267;SDS011;6196;48.398;11.736;2023-05-10T07:49:15;2.03;;;1.40;;
12267;SDS011;6196;48.398;11.736;2023-05-10T07:51:42;2.30;;;1.47;;
12267;SDS011;6196;48.398;11.736;2023-05-10T07:54:09;1.30;;;1.20;;
12267;SDS011;6196;48.398;11.736;2023-05-10T07:56:36;1.87;;;1.13;;
12267;SDS011;6196;48.398;11.736;2023-05-10T07:59:03;1.53;;;1.00;;
12267;SDS011;6196;48.398;11.736;2023-05-10T08:01:32;1.60;;;1.10;;
12267;SDS011;6196;48.398;11.736;2023-05-10T08:04:00;3.07;;;1.30;;
12267;SDS011;6196;48.398;11.736;2023-05-10T08:06:28;1.90;;;1.00;;
12267;SDS011;6196;48.398;11.736;2023-05-10T08:08:56;1.43;;;1.10;;
12267;SDS011;6196;48.398;11.736;2023-05-10T08:11:23;1.27;;;1.17;;
12267;SDS011;6196;48.398;11.736;2023-05-10T08:13:50;3.73;;;1.40;;
12267;SDS011;6196;48.398;11.736;2023-05-10T08:16:18;1.20;;;1.10;;
12267;SDS011;6196;48.398;11.736;2023-05-10T08:18:45;1.53;;;1.00;;
12267;SDS011;6196;48.398;11.736;2023-05-10T08:21:13;2.10;;;1.00;;
12267;SDS011;6196;48.398;11.736;2023-05-10T08:23:41;1.67;;;1.20;;
12267;SDS011;6196;48.398;11.736;2023-05-10T08:26:10;1.70;;;0.80;;
12267;SDS011;6196;48.398;11.736;2023-05-10T08:28:37;1.83;;;0.90;;
12267;SDS011;6196;48.398;11.736;2023-05-10T08:31:04;1.23;;;1.10;;
12267;SDS011;6196;48.398;11.736;2023-05-10T08:33:32;1.10;;;1.00;;
12267;SDS011;6196;48.398;11.736;2023-05-10T08:35:59;1.77;;;1.03;;
12267;SDS011;6196;48.398;11.736;2023-05-10T08:38:26;1.70;;;0.70;;
12267;SDS011;6196;48.398;11.736;2023-05-10T08:40:53;1.13;;;1.03;;
12267;SDS011;6196;48.398;11.736;2023-05-10T08:43:28;1.97;;;1.13;;
12267;SDS011;6196;48.398;11.736;2023-05-10T08:45:56;1.90;;;1.00;;
12267;SDS011;6196;48.398;11.736;2023-05-10T08:48:29;1.50;;;1.00;;
12267;SDS011;6196;48.398;11.736;2023-05-10T08:50:58;1.90;;;1.10;;
12267;SDS011;6196;48.398;11.736;2023-05-10T08:53:28;1.40;;;1.23;;
12267;SDS011;6196;48.398;11.736;2023-05-10T08:55:57;0.93;;;0.90;;
12267;SDS011;6196;48.398;11.736;2023-05-10T08:58:24;1.43;;;1.20;;
12267;SDS011;6196;48.398;11.736;2023-05-10T09:00:51;1.30;;;1.10;;
12267;SDS011;6196;48.398;11.736;2023-05-10T09:03:19;3.07;;;1.33;;
12267;SDS011;6196;48.398;11.736;2023-05-10T09:05:46;1.33;;;1.23;;
12267;SDS011;6196;48.398;11.736;2023-05-10T09:08:14;1.60;;;1.37;;
12267;SDS011;6196;48.398;11.736;2023-05-10T09:10:45;1.00;;;1.00;;
12267;SDS011;6196;48.398;11.736;2023-05-10T09:13:14;1.57;;;1.47;;
12267;SDS011;6196;48.398;11.736;2023-05-10T09:15:43;2.40;;;1.53;;
12267;SDS011;6196;48.398;11.736;2023-05-10T09:18:10;3.20;;;1.40;;
12267;SDS011;6196;48.398;11.736;2023-05-10T09:20:38;2.90;;;1.60;;
12267;SDS011;6196;48.398;11.736;2023-05-10T09:23:05;1.67;;;1.50;;
12267;SDS011;6196;48.398;11.736;2023-05-10T09:25:32;1.77;;;1.23;;
12267;SDS011;6196;48.398;11.736;2023-05-10T09:28:03;1.27;;;1.17;;
12267;SDS011;6196;48.398;11.736;2023-05-10T09:30:34;2.60;;;1.20;;
12267;SDS011;6196;48.398;11.736;2023-05-10T09:33:02;2.77;;;1.40;;
12267;SDS011;6196;48.398;11.736;2023-05-10T09:35:30;1.30;;;1.20;;
12267;SDS011;6196;48.398;11.736;2023-05-10T09:38:00;1.23;;;1.00;;
12267;SDS011;6196;48.398;11.736;2023-05-10T09:40:31;2.23;;;1.00;;
12267;SDS011;6196;48.398;11.736;2023-05-10T09:43:07;2.07;;;1.10;;
12267;SDS011;6196;48.398;11.736;2023-05-10T09:45:35;1.27;;;1.17;;
12267;SDS011;6196;48.398;11.736;2023-05-10T09:48:04;4.23;;;1.20;;
12267;SDS011;6196;48.398;11.736;2023-05-10T09:50:32;1.47;;;1.03;;
12267;SDS011;6196;48.398;11.736;2023-05-10T09:53:02;0.90;;;0.90;;
12267;SDS011;6196;48.398;11.736;2023-05-10T09:55:43;1.23;;;0.93;;
12267;SDS011;6196;48.398;11.736;2023-05-10T09:58:13;1.57;;;1.10;;
12267;SDS011;6196;48.398;11.736;2023-05-10T10:00:41;1.37;;;0.70;;
12267;SDS011;6196;48.398;11.736;2023-05-10T10:03:14;1.80;;;1.10;;
12267;SDS011;6196;48.398;11.736;2023-05-10T10:05:43;2.40;;;1.03;;
12267;SDS011;6196;48.398;11.736;2023-05-10T10:08:11;1.63;;;1.10;;
12267;SDS011;6196;48.398;11.736;2023-05-10T10:10:39;2.03;;;1.10;;
12267;SDS011;6196;48.398;11.736;2023-05-10T10:13:07;1.27;;;1.10;;
12267;SDS011;6196;48.398;11.736;2023-05-10T10:15:34;3.83;;;1.13;;
12267;SDS011;6196;48.398;11.736;2023-05-10T10:18:02;2.30;;;1.20;;
12267;SDS011;6196;48.398;11.736;2023-05-10T10:20:33;1.00;;;0.90;;
12267;SDS011;6196;48.398;11.736;2023-05-10T10:22:59;0.70;;;0.70;;
12267;SDS011;6196;48.398;11.736;2023-05-10T10:25:27;0.90;;;0.80;;
12267;SDS011;6196;48.398;11.736;2023-05-10T10:27:57;0.67;;;0.67;;
12267;SDS011;6196;48.398;11.736;2023-05-10T10:30:53;1.70;;;1.00;;
12267;SDS011;6196;48.398;11.736;2023-05-10T10:33:30;1.80;;;1.00;;
12267;SDS011;6196;48.398;11.736;2023-05-10T10:36:28;1.43;;;0.80;;
12267;SDS011;6196;48.398;11.736;2023-05-10T10:38:57;1.10;;;0.97;;
12267;SDS011;6196;48.398;11.736;2023-05-10T10:41:27;1.60;;;1.37;;
12267;SDS011;6196;48.398;11.736;2023-05-10T10:49:52;2.10;;;1.60;;
12267;SDS011;6196;48.398;11.736;2023-05-10T10:55:09;9.87;;;6.13;;
12267;SDS011;6196;48.398;11.736;2023-05-10T10:57:44;4.87;;;3.60;;
12267;SDS011;6196;48.398;11.736;2023-05-10T11:08:21;4.67;;;4.27;;
12267;SDS011;6196;48.398;11.736;2023-05-10T11:13:28;5.30;;;4.20;;
12267;SDS011;6196;48.398;11.736;2023-05-10T11:15:57;6.87;;;4.60;;
12267;SDS011;6196;48.398;11.736;2023-05-10T11:18:39;7.97;;;4.97;;
12267;SDS011;6196;48.398;11.736;2023-05-10T11:21:08;5.37;;;4.07;;
12267;SDS011;6196;48.398;11.736;2023-05-10T11:26:09;4.53;;;3.30;;
12267;SDS011;6196;48.398;11.736;2023-05-10T11:28:46;1.93;;;1.70;;
12267;SDS011;6196;48.398;11.736;2023-05-10T11:31:18;3.67;;;2.47;;
12267;SDS011;6196;48.398;11.736;2023-05-10T11:33:47;1.90;;;1.80;;
12267;SDS011;6196;48.398;11.736;2023-05-10T11:36:29;2.37;;;1.20;;
12267;SDS011;6196;48.398;11.736;2023-05-10T11:39:00;1.70;;;1.40;;
12267;SDS011;6196;48.398;11.736;2023-05-10T11:41:29;2.67;;;1.70;;
12267;SDS011;6196;48.398;11.736;2023-05-10T11:43:57;3.23;;;1.50;;
12267;SDS011;6196;48.398;11.736;2023-05-10T11:46:25;1.40;;;0.90;;
12267;SDS011;6196;48.398;11.736;2023-05-10T11:48:56;0.80;;;0.80;;
12267;SDS011;6196;48.398;11.736;2023-05-10T11:51:27;2.37;;;1.00;;
12267;SDS011;6196;48.398;11.736;2023-05-10T11:53:55;0.70;;;0.70;;
12267;SDS011;6196;48.398;11.736;2023-05-10T11:56:23;1.10;;;1.00;;
12267;SDS011;6196;48.398;11.736;2023-05-10T11:58:53;0.80;;;0.80;;
12267;SDS011;6196;48.398;11.736;2023-05-10T12:01:22;1.30;;;1.10;;
12267;SDS011;6196;48.398;11.736;2023-05-10T12:03:51;2.43;;;0.90;;
12267;SDS011;6196;48.398;11.736;2023-05-10T12:06:20;1.20;;;1.10;;
12267;SDS011;6196;48.398;11.736;2023-05-10T12:08:48;1.73;;;1.20;;
12267;SDS011;6196;48.398;11.736;2023-05-10T12:11:19;3.73;;;1.30;;
12267;SDS011;6196;48.398;11.736;2023-05-10T12:13:50;3.57;;;1.77;;
12267;SDS011;6196;48.398;11.736;2023-05-10T12:16:24;2.00;;;1.37;;
12267;SDS011;6196;48.398;11.736;2023-05-10T12:18:59;1.20;;;1.00;;
12267;SDS011;6196;48.398;11.736;2023-05-10T12:21:29;2.07;;;1.33;;
12267;SDS011;6196;48.398;11.736;2023-05-10T12:24:01;1.50;;;1.40;;
12267;SDS011;6196;48.398;11.736;2023-05-10T12:26:29;2.00;;;1.40;;
12267;SDS011;6196;48.398;11.736;2023-05-10T12:29:12;1.77;;;0.93;;
12267;SDS011;6196;48.398;11.736;2023-05-10T12:31:51;2.03;;;0.93;;
12267;SDS011;6196;48.398;11.736;2023-05-10T12:34:29;1.17;;;1.07;;
12267;SDS011;6196;48.398;11.736;2023-05-10T12:37:01;4.07;;;1.20;;
12267;SDS011;6196;48.398;11.736;2023-05-10T12:42:10;3.27;;;1.50;;
12267;SDS011;6196;48.398;11.736;2023-05-10T12:44:38;1.50;;;1.40;;
12267;SDS011;6196;48.398;11.736;2023-05-10T12:47:05;2.07;;;1.40;;
12267;SDS011;6196;48.398;11.736;2023-05-10T12:49:33;2.83;;;1.40;;
12267;SDS011;6196;48.398;11.736;2023-05-10T12:52:00;1.77;;;1.23;;
12267;SDS011;6196;48.398;11.736;2023-05-10T12:54:27;2.10;;;1.40;;
12267;SDS011;6196;48.398;11.736;2023-05-10T12:56:54;2.13;;;1.10;;
12267;SDS011;6196;48.398;11.736;2023-05-10T12:59:21;1.33;;;1.20;;
12267;SDS011;6196;48.398;11.736;2023-05-10T13:01:49;1.33;;;1.03;;
12267;SDS011;6196;48.398;11.736;2023-05-10T13:04:15;3.53;;;1.10;;
12267;SDS011;6196;48.398;11.736;2023-05-10T13:06:42;1.43;;;1.07;;
12267;SDS011;6196;48.398;11.736;2023-05-10T13:09:09;2.03;;;0.80;;
12267;SDS011;6196;48.398;11.736;2023-05-10T13:11:36;0.90;;;0.60;;
12267;SDS011;6196;48.398;11.736;2023-05-10T13:14:03;3.77;;;0.97;;
12267;SDS011;6196;48.398;11.736;2023-05-10T13:16:30;1.00;;;0.70;;
12267;SDS011;6196;48.398;11.736;2023-05-10T13:18:57;2.17;;;0.80;;
12267;SDS011;6196;48.398;11.736;2023-05-10T13:21:25;1.07;;;0.50;;
12267;SDS011;6196;48.398;11.736;2023-05-10T13:23:52;2.50;;;0.50;;
12267;SDS011;6196;48.398;11.736;2023-05-10T13:26:19;0.63;;;0.40;;
12267;SDS011;6196;48.398;11.736;2023-05-10T13:28:46;0.67;;;0.50;;
12267;SDS011;6196;48.398;11.736;2023-05-10T13:31:15;0.90;;;0.57;;
12267;SDS011;6196;48.398;11.736;2023-05-10T13:33:41;1.93;;;0.60;;
12267;SDS011;6196;48.398;11.736;2023-05-10T13:36:08;0.60;;;0.40;;
12267;SDS011;6196;48.398;11.736;2023-05-10T13:38:35;2.13;;;0.57;;
12267;SDS011;6196;48.398;11.736;2023-05-10T13:41:02;1.00;;;0.60;;
12267;SDS011;6196;48.398;11.736;2023-05-10T13:43:29;1.00;;;0.70;;
12267;SDS011;6196;48.398;11.736;2023-05-10T13:45:56;0.93;;;0.70;;
12267;SDS011;6196;48.398;11.736;2023-05-10T13:48:23;0.93;;;0.83;;
12267;SDS011;6196;48.398;11.736;2023-05-10T13:50:50;1.90;;;0.87;;
12267;SDS011;6196;48.398;11.736;2023-05-10T13:53:17;0.63;;;0.63;;
12267;SDS011;6196;48.398;11.736;2023-05-10T13:55:44;3.33;;;1.20;;
12267;SDS011;6196;48.398;11.736;2023-05-10T13:58:10;1.47;;;0.80;;
12267;SDS011;6196;48.398;11.736;2023-05-10T14:00:37;0.90;;;0.80;;
12267;SDS011;6196;48.398;11.736;2023-05-10T14:03:04;0.80;;;0.73;;
12267;SDS011;6196;48.398;11.736;2023-05-10T14:05:32;0.77;;;0.63;;
12267;SDS011;6196;48.398;11.736;2023-05-10T14:07:59;2.03;;;0.87;;
12267;SDS011;6196;48.398;11.736;2023-05-10T14:10:26;4.20;;;1.00;;
12267;SDS011;6196;48.398;11.736;2023-05-10T14:12:53;1.07;;;0.87;;
12267;SDS011;6196;48.398;11.736;2023-05-10T14:15:19;1.17;;;1.07;;
12267;SDS011;6196;48.398;11.736;2023-05-10T14:17:46;1.03;;;0.90;;
12267;SDS011;6196;48.398;11.736;2023-05-10T14:20:14;1.43;;;1.10;;
12267;SDS011;6196;48.398;11.736;2023-05-10T14:22:41;1.67;;;0.90;;
12267;SDS011;6196;48.398;11.736;2023-05-10T14:25:08;1.30;;;1.20;;
12267;SDS011;6196;48.398;11.736;2023-05-10T14:27:35;1.23;;;1.10;;
12267;SDS011;6196;48.398;11.736;2023-05-10T14:30:02;1.83;;;1.30;;
12267;SDS011;6196;48.398;11.736;2023-05-10T14:32:29;1.40;;;1.30;;
12267;SDS011;6196;48.398;11.736;2023-05-10T14:34:58;1.77;;;1.50;;
12267;SDS011;6196;48.398;11.736;2023-05-10T14:37:25;1.97;;;1.57;;
12267;SDS011;6196;48.398;11.736;2023-05-10T14:39:52;2.27;;;1.40;;
12267;SDS011;6196;48.398;11.736;2023-05-10T14:42:20;2.50;;;1.60;;
12267;SDS011;6196;48.398;11.736;2023-05-10T14:44:47;1.57;;;1.47;;
12267;SDS011;6196;48.398;11.736;2023-05-10T14:47:14;2.40;;;1.40;;
12267;SDS011;6196;48.398;11.736;2023-05-10T14:49:41;1.90;;;1.50;;
12267;SDS011;6196;48.398;11.736;2023-05-10T14:52:08;2.47;;;1.20;;
12267;SDS011;6196;48.398;11.736;2023-05-10T14:54:34;3.33;;;1.10;;
12267;SDS011;6196;48.398;11.736;2023-05-10T14:57:01;2.10;;;0.97;;
12267;SDS011;6196;48.398;11.736;2023-05-10T14:59:28;2.03;;;0.90;;
12267;SDS011;6196;48.398;11.736;2023-05-10T15:01:55;1.83;;;1.00;;
12267;SDS011;6196;48.398;11.736;2023-05-10T15:04:23;1.80;;;1.00;;
12267;SDS011;6196;48.398;11.736;2023-05-10T15:06:53;1.27;;;1.00;;
12267;SDS011;6196;48.398;11.736;2023-05-10T15:09:25;1.10;;;0.93;;
12267;SDS011;6196;48.398;11.736;2023-05-10T15:11:53;1.60;;;1.50;;
12267;SDS011;6196;48.398;11.736;2023-05-10T15:14:21;1.47;;;1.37;;
12267;SDS011;6196;48.398;11.736;2023-05-10T15:16:49;2.27;;;1.40;;
12267;SDS011;6196;48.398;11.736;2023-05-10T15:19:16;1.73;;;1.60;;
12267;SDS011;6196;48.398;11.736;2023-05-10T15:21:43;1.47;;;1.17;;
12267;SDS011;6196;48.398;11.736;2023-05-10T15:24:10;2.03;;;1.30;;
12267;SDS011;6196;48.398;11.736;2023-05-10T15:26:37;1.33;;;0.90;;
12267;SDS011;6196;48.398;11.736;2023-05-10T15:29:04;1.63;;;1.00;;
12267;SDS011;6196;48.398;11.736;2023-05-10T15:31:31;0.97;;;0.80;;
12267;SDS011;6196;48.398;11.736;2023-05-10T15:34:01;1.00;;;0.60;;
12267;SDS011;6196;48.398;11.736;2023-05-10T15:36:28;1.23;;;0.43;;
12267;SDS011;6196;48.398;11.736;2023-05-10T15:38:54;0.97;;;0.70;;
12267;SDS011;6196;48.398;11.736;2023-05-10T15:41:22;1.73;;;0.60;;